createdAt,value
2018-04-10T00:01:04.177Z,99475
2018-04-10T00:03:32.257Z,99465
2018-04-10T00:06:00.427Z,99465
2018-04-10T00:08:28.519Z,99469
2018-04-10T00:11:00.924Z,99465
2018-04-10T00:13:29.001Z,99466
2018-04-10T00:15:57.423Z,99468
2018-04-10T00:18:26.360Z,99474
2018-04-10T00:20:54.529Z,99481
2018-04-10T00:23:22.624Z,99479
2018-04-10T00:25:51.652Z,99472
2018-04-10T00:28:20.600Z,99472
2018-04-10T00:30:48.693Z,99475
2018-04-10T00:33:16.812Z,99481
2018-04-10T00:35:45.991Z,99476
2018-04-10T00:38:14.840Z,99480
2018-04-10T00:40:42.930Z,99481
2018-04-10T00:43:11.003Z,99485
2018-04-10T00:45:39.164Z,99486
2018-04-10T00:48:08.390Z,99486
2018-04-10T00:50:36.453Z,99485
2018-04-10T00:53:22.267Z,99496
2018-04-10T00:55:50.352Z,99498
2018-04-10T00:58:19.289Z,99484
2018-04-10T01:00:47.371Z,99487
2018-04-10T01:03:15.453Z,99494
2018-04-10T01:05:43.530Z,99488
2018-04-10T01:08:12.403Z,99490
2018-04-10T01:10:40.475Z,99489
2018-04-10T01:13:08.680Z,99481
2018-04-10T01:15:37.520Z,99489
2018-04-10T01:18:05.605Z,99488
2018-04-10T01:20:33.912Z,99493
2018-04-10T01:23:02.744Z,99500
2018-04-10T01:25:31.225Z,99495
2018-04-10T01:27:59.310Z,99488
2018-04-10T01:30:27.593Z,99495
2018-04-10T01:32:55.656Z,99495
2018-04-10T01:35:25.879Z,99485
2018-04-10T01:37:56.040Z,99492
2018-04-10T01:40:24.886Z,99496
2018-04-10T01:42:52.960Z,99490
2018-04-10T01:45:21.035Z,99479
2018-04-10T01:47:49.120Z,99491
2018-04-10T01:50:17.211Z,99491
2018-04-10T01:52:45.313Z,99495
2018-04-10T01:55:14.169Z,99491
2018-04-10T01:57:42.353Z,99487
2018-04-10T02:00:10.940Z,99492
2018-04-10T02:02:39.035Z,99482
2018-04-10T02:05:07.172Z,99490
2018-04-10T02:07:35.255Z,99480
2018-04-10T02:10:03.354Z,99488
2018-04-10T02:12:32.204Z,99486
2018-04-10T02:15:00.562Z,99492
2018-04-10T02:17:28.638Z,99494
2018-04-10T02:19:56.736Z,99481
2018-04-10T02:22:24.808Z,99479
2018-04-10T02:24:52.898Z,99474
2018-04-10T02:27:21.751Z,99483
2018-04-10T02:29:50.111Z,99478
2018-04-10T02:32:19.107Z,99496
2018-04-10T02:34:47.197Z,99502
2018-04-10T02:37:15.296Z,99500
2018-04-10T02:39:44.140Z,99508
2018-04-10T02:42:12.241Z,99489
2018-04-10T02:44:40.336Z,99493
2018-04-10T02:47:09.195Z,99489
2018-04-10T02:49:38.188Z,99482
2018-04-10T02:52:06.270Z,99483
2018-04-10T02:54:35.157Z,99491
2018-04-10T02:57:03.787Z,99490
2018-04-10T02:59:31.879Z,99486
2018-04-10T03:02:00.021Z,99482
2018-04-10T03:04:29.021Z,99479
2018-04-10T03:06:57.220Z,99487
2018-04-10T03:09:25.327Z,99483
2018-04-10T03:11:53.407Z,99492
2018-04-10T03:14:22.296Z,99503
2018-04-10T03:16:50.815Z,99496
2018-04-10T03:19:18.914Z,99496
2018-04-10T03:21:47.316Z,99494
2018-04-10T03:24:16.522Z,99514
2018-04-10T03:26:44.611Z,99499
2018-04-10T03:29:12.869Z,99499
2018-04-10T03:31:40.944Z,99498
2018-04-10T03:34:10.034Z,99496
2018-04-10T03:36:38.216Z,99499
2018-04-10T03:39:08.150Z,99496
2018-04-10T03:41:37.018Z,99497
2018-04-10T03:44:05.141Z,99490
2018-04-10T03:46:33.240Z,99496
2018-04-10T03:49:01.644Z,99508
2018-04-10T03:51:29.779Z,99501
2018-04-10T03:53:58.634Z,99507
2018-04-10T03:56:26.744Z,99518
2018-04-10T03:58:59.638Z,99512
2018-04-10T04:01:30.386Z,99514
2018-04-10T04:03:59.397Z,99522
2018-04-10T04:06:31.913Z,99515
2018-04-10T04:09:00.059Z,99507
2018-04-10T04:11:28.175Z,99509
2018-04-10T04:13:57.251Z,99508
2018-04-10T04:16:43.784Z,99505
2018-04-10T04:19:30.690Z,99510
2018-04-10T04:22:19.467Z,99507
2018-04-10T04:24:47.795Z,99496
2018-04-10T04:27:17.950Z,99499
2018-04-10T04:29:47.222Z,99503
2018-04-10T04:32:15.539Z,99499
2018-04-10T04:34:46.821Z,99512
2018-04-10T04:37:15.813Z,99510
2018-04-10T04:39:45.332Z,99512
2018-04-10T04:42:14.508Z,99519
2018-04-10T04:44:42.641Z,99503
2018-04-10T04:47:11.998Z,99504
2018-04-10T04:49:40.130Z,99506
2018-04-10T04:52:08.215Z,99512
2018-04-10T04:54:36.344Z,99505
2018-04-10T04:57:04.971Z,99511
2018-04-10T04:59:33.082Z,99506
2018-04-10T05:02:02.076Z,99508
2018-04-10T05:04:30.185Z,99505
2018-04-10T05:06:58.283Z,99508
2018-04-10T05:09:26.348Z,99510
2018-04-10T05:11:54.837Z,99526
2018-04-10T05:14:22.912Z,99523
2018-04-10T05:16:51.032Z,99530
2018-04-10T05:19:19.133Z,99538
2018-04-10T05:21:48.053Z,99530
2018-04-10T05:24:18.197Z,99530
2018-04-10T05:26:47.052Z,99539
2018-04-10T05:29:15.308Z,99543
2018-04-10T05:31:43.393Z,99536
2018-04-10T05:34:13.589Z,99539
2018-04-10T05:36:46.200Z,99551
2018-04-10T05:39:14.536Z,99553
2018-04-10T05:41:42.638Z,99549
2018-04-10T05:44:10.743Z,99554
2018-04-10T05:46:38.829Z,99561
2018-04-10T05:49:07.709Z,99562
2018-04-10T05:51:35.791Z,99557
2018-04-10T05:54:04.014Z,99563
2018-04-10T05:56:32.569Z,99569
2018-04-10T05:59:00.643Z,99574
2018-04-10T06:01:28.746Z,99576
2018-04-10T06:03:56.981Z,99571
2018-04-10T06:06:25.225Z,99574
2018-04-10T06:08:53.889Z,99584
2018-04-10T06:11:25.466Z,99578
2018-04-10T06:13:53.545Z,99582
2018-04-10T06:16:21.625Z,99590
2018-04-10T06:18:49.778Z,99587
2018-04-10T06:21:17.937Z,99586
2018-04-10T06:23:46.058Z,99589
2018-04-10T06:26:14.908Z,99600
2018-04-10T06:28:42.999Z,99597
2018-04-10T06:31:11.108Z,99606
2018-04-10T06:33:39.388Z,99611
2018-04-10T06:36:07.499Z,99606
2018-04-10T06:38:35.630Z,99610
2018-04-10T06:41:03.728Z,99603
2018-04-10T06:43:31.835Z,99605
2018-04-10T06:45:59.914Z,99605
2018-04-10T06:48:28.780Z,99617
2018-04-10T06:50:56.872Z,99613
2018-04-10T06:53:24.950Z,99607
2018-04-10T06:55:53.040Z,99606
2018-04-10T06:58:21.134Z,99612
2018-04-10T07:00:49.220Z,99623
2018-04-10T07:03:17.301Z,99618
2018-04-10T07:05:45.403Z,99611
2018-04-10T07:08:13.492Z,99616
2018-04-10T07:10:43.108Z,99611
2018-04-10T07:13:12.656Z,99621
2018-04-10T07:15:40.745Z,99619
2018-04-10T07:18:08.832Z,99618
2018-04-10T07:20:36.959Z,99618
2018-04-10T07:23:05.831Z,99624
2018-04-10T07:25:34.799Z,99632
2018-04-10T07:28:02.873Z,99625
2018-04-10T07:30:30.965Z,99625
2018-04-10T07:32:59.037Z,99625
2018-04-10T07:35:27.133Z,99644
2018-04-10T07:37:55.201Z,99647
2018-04-10T07:40:24.038Z,99639
2018-04-10T07:42:53.135Z,99645
2018-04-10T07:45:21.429Z,99661
2018-04-10T07:47:49.522Z,99663
2018-04-10T07:50:17.597Z,99668
2018-04-10T07:52:45.690Z,99670
2018-04-10T07:55:14.819Z,99671
2018-04-10T07:57:42.900Z,99671
2018-04-10T08:00:11.918Z,99675
2018-04-10T08:02:40.029Z,99676
2018-04-10T08:05:08.103Z,99671
2018-04-10T08:07:36.164Z,99675
2018-04-10T08:10:04.255Z,99670
2018-04-10T08:12:32.331Z,99677
2018-04-10T08:15:04.470Z,99673
2018-04-10T08:18:12.883Z,99677
2018-04-10T08:20:45.091Z,99696
2018-04-10T08:23:14.401Z,99692
2018-04-10T08:25:42.648Z,99693
2018-04-10T08:28:10.913Z,99690
2018-04-10T08:30:39.122Z,99696
2018-04-10T08:33:18.974Z,99698
2018-04-10T08:35:47.068Z,99703
2018-04-10T08:38:15.956Z,99693
2018-04-10T10:00:56.036Z,99715
2018-04-10T10:03:30.902Z,99716
2018-04-10T10:27:48.480Z,99716
2018-04-10T10:37:22.399Z,99705
2018-04-10T10:43:01.249Z,99707
2018-04-10T10:45:32.860Z,99705
2018-04-10T10:51:08.641Z,99712
2018-04-10T10:53:46.507Z,99529
2018-04-10T10:56:26.058Z,99710
2018-04-10T10:58:57.617Z,99708
2018-04-10T11:01:35.280Z,99709
2018-04-10T11:06:47.965Z,99705
2018-04-10T11:09:23.488Z,99708
2018-04-10T11:11:53.330Z,99707
2018-04-10T11:17:15.349Z,99701
2018-04-10T11:19:44.810Z,99702
2018-04-10T11:22:17.244Z,99708
2018-04-10T11:24:47.317Z,99705
2018-04-10T11:27:16.243Z,99710
2018-04-10T11:29:45.968Z,99702
2018-04-10T11:35:39.175Z,99700
2018-04-10T11:38:09.532Z,99692
2018-04-10T11:40:37.953Z,99693
2018-04-10T11:43:07.076Z,99694
2018-04-10T11:45:36.789Z,99693
2018-04-10T11:48:07.452Z,99700
2018-04-10T11:50:39.208Z,99687
2018-04-10T11:53:11.029Z,99689
2018-04-10T11:55:40.604Z,99681
2018-04-10T11:58:13.214Z,99678
2018-04-10T12:00:43.064Z,99676
2018-04-10T12:03:11.934Z,99673
2018-04-10T12:05:41.057Z,99670
2018-04-10T12:08:09.344Z,99679
2018-04-10T12:10:38.988Z,99673
2018-04-10T12:13:07.949Z,99665
2018-04-10T12:15:36.025Z,99670
2018-04-10T12:18:04.129Z,99665
2018-04-10T12:20:32.233Z,99666
2018-04-10T12:23:00.328Z,99665
2018-04-10T12:25:28.435Z,99661
2018-04-10T12:27:56.852Z,99667
2018-04-10T12:30:25.745Z,99666
2018-04-10T12:32:54.041Z,99664
2018-04-10T12:35:25.144Z,99654
2018-04-10T12:37:53.393Z,99664
2018-04-10T12:40:21.469Z,99663
2018-04-10T12:42:49.569Z,99659
2018-04-10T12:45:17.847Z,99656
2018-04-10T12:47:45.960Z,99658
2018-04-10T12:50:14.801Z,99660
2018-04-10T12:52:42.897Z,99656
2018-04-10T12:55:11.011Z,99653
2018-04-10T12:57:39.420Z,99648
2018-04-10T13:00:08.560Z,99645
2018-04-10T13:02:37.760Z,99653
2018-04-10T13:05:06.627Z,99645
2018-04-10T13:07:34.897Z,99647
2018-04-10T13:10:02.954Z,99640
2018-04-10T13:12:31.062Z,99642
2018-04-10T13:14:59.179Z,99642
2018-04-10T13:17:27.385Z,99640
2018-04-10T13:19:55.868Z,99636
2018-04-10T13:22:23.949Z,99640
2018-04-10T13:24:52.051Z,99628
2018-04-10T13:30:07.279Z,99626
2018-04-10T13:32:35.596Z,99625
2018-04-10T13:35:03.781Z,99628
2018-04-10T13:37:35.642Z,99619
2018-04-10T13:40:04.709Z,99623
2018-04-10T13:42:32.794Z,99611
2018-04-10T13:45:00.902Z,99615
2018-04-10T13:47:29.214Z,99608
2018-04-10T13:49:57.380Z,99608
2018-04-10T13:52:25.516Z,99615
2018-04-10T13:54:53.627Z,99613
2018-04-10T13:57:21.855Z,99611
2018-04-10T13:59:50.253Z,99608
2018-04-10T14:02:19.369Z,99600
2018-04-10T14:04:47.463Z,99590
2018-04-10T14:07:15.545Z,99595
2018-04-10T14:09:43.730Z,99586
2018-04-10T14:12:12.095Z,99584
2018-04-10T14:14:46.977Z,99582
2018-04-10T14:17:23.380Z,99582
2018-04-10T14:19:56.118Z,99588
2018-04-10T14:22:26.073Z,99581
2018-04-10T14:24:56.195Z,99578
2018-04-10T14:27:25.948Z,99580
2018-04-10T14:29:54.306Z,99577
2018-04-10T14:32:23.452Z,99576
2018-04-10T14:35:03.385Z,99570
2018-04-10T14:37:35.482Z,99572
2018-04-10T14:40:08.977Z,99568
2018-04-10T14:42:37.773Z,99552
2018-04-10T14:45:07.735Z,99556
2018-04-10T14:47:36.246Z,99557
2018-04-10T14:50:04.542Z,99550
2018-04-10T14:52:33.039Z,99556
2018-04-10T14:55:01.985Z,99552
2018-04-10T14:57:30.112Z,99545
2018-04-10T14:59:58.217Z,99546
2018-04-10T15:02:26.363Z,99532
2018-04-10T15:04:56.472Z,99539
2018-04-10T15:07:24.666Z,99544
2018-04-10T15:09:52.785Z,99536
2018-04-10T15:12:20.894Z,99543
2018-04-10T15:14:48.985Z,99537
2018-04-10T15:17:18.407Z,99534
2018-04-10T15:19:46.503Z,99541
2018-04-10T15:22:15.381Z,99539
2018-04-10T15:24:43.460Z,99546
2018-04-10T15:27:12.418Z,99538
2018-04-10T15:29:40.822Z,99536
2018-04-10T15:32:38.285Z,99537
2018-04-10T15:35:07.612Z,99539
2018-04-10T15:37:36.506Z,99546
2018-04-10T15:40:37.359Z,99538
2018-04-10T15:43:14.327Z,99532
2018-04-10T15:45:46.530Z,99542
2018-04-10T15:48:26.166Z,99540
2018-04-10T15:54:04.806Z,99526
2018-04-10T16:02:28.814Z,99530
2018-04-10T16:07:48.954Z,99524
2018-04-10T16:10:20.606Z,99527
2018-04-10T16:43:08.446Z,99524
2018-04-10T16:45:52.328Z,99526
2018-04-10T16:48:24.571Z,99532
2018-04-10T16:51:07.440Z,99523
2018-04-10T16:53:41.720Z,99518
2018-04-10T16:56:12.814Z,99522
2018-04-10T16:58:45.246Z,99527
2018-04-10T17:01:18.265Z,99521
2018-04-10T17:03:49.619Z,99536
2018-04-10T17:06:22.503Z,99528
2018-04-10T17:08:54.074Z,99532
2018-04-10T17:14:00.012Z,99540
2018-04-10T17:16:32.612Z,99539
2018-04-10T17:19:04.711Z,99538
2018-04-10T17:21:35.127Z,99542
2018-04-10T17:24:04.398Z,99550
2018-04-10T17:29:23.174Z,99524
2018-04-10T17:31:55.995Z,99557
2018-04-10T17:34:29.591Z,99550
2018-04-10T17:37:00.810Z,99540
2018-04-10T17:39:32.348Z,99544
2018-04-10T17:42:02.298Z,99548
2018-04-10T17:44:31.237Z,99556
2018-04-10T17:47:00.375Z,99562
2018-04-10T17:49:29.421Z,99563
2018-04-10T17:52:00.088Z,99574
2018-04-10T17:54:30.787Z,99576
2018-04-10T17:57:00.956Z,99577
2018-04-10T17:59:33.427Z,99580
2018-04-10T18:02:03.448Z,99582
2018-04-10T18:04:32.986Z,99581
2018-04-10T18:07:04.575Z,99577
2018-04-10T18:09:33.309Z,99570
2018-04-10T18:12:05.303Z,99576
2018-04-10T18:14:38.417Z,99569
2018-04-10T18:17:07.817Z,99574
2018-04-10T18:19:39.188Z,99573
2018-04-10T18:22:08.670Z,99569
2018-04-10T18:33:29.691Z,99580
2018-04-10T18:36:14.411Z,99574
2018-04-10T18:38:50.883Z,99578
2018-04-10T18:44:27.488Z,99572
2018-04-10T18:49:41.071Z,99603
2018-04-10T18:54:53.820Z,99635
2018-04-10T19:00:43.811Z,99694
2018-04-10T19:03:21.115Z,99704
2018-04-10T19:05:51.586Z,99691
2018-04-10T19:08:23.809Z,99688
2018-04-10T19:10:53.267Z,99702
2018-04-10T19:13:23.383Z,99719
2018-04-10T19:16:00.400Z,99701
2018-04-10T19:18:33.151Z,99664
2018-04-10T19:23:39.794Z,99670
2018-04-10T19:26:10.678Z,99656
2018-04-10T19:28:45.126Z,99663
2018-04-10T19:31:15.877Z,99682
2018-04-10T19:33:47.863Z,99706
2018-04-10T19:36:22.566Z,99744
2018-04-10T19:38:59.463Z,99784
2018-04-10T19:41:28.180Z,99797
2018-04-10T19:43:58.058Z,99798
2018-04-10T19:46:27.105Z,99798
2018-04-10T19:48:59.880Z,99795
2018-04-10T19:51:31.455Z,99811
2018-04-10T19:54:02.015Z,99825
2018-04-10T19:56:36.646Z,99823
2018-04-10T19:59:08.762Z,99826
2018-04-10T20:04:24.396Z,99771
2018-04-10T20:07:00.417Z,99769
2018-04-10T20:09:33.629Z,99736
2018-04-10T20:12:03.282Z,99715
2018-04-10T20:14:38.350Z,99702
2018-04-10T20:19:49.162Z,99671
2018-04-10T20:22:22.360Z,99663
2018-04-10T20:24:56.461Z,99642
2018-04-10T20:27:27.483Z,99643
2018-04-10T20:30:02.328Z,99651
2018-04-10T20:32:34.285Z,99696
2018-04-10T20:35:12.882Z,99669
2018-04-10T20:37:51.237Z,99701
2018-04-10T20:40:26.682Z,99727
2018-04-10T20:42:54.935Z,99752
2018-04-10T20:45:32.998Z,99752
